createdAt,value
2022-12-22T00:00:32.145Z,96528.69
2022-12-22T00:06:19.160Z,96505.69
2022-12-22T00:11:58.483Z,96503.84
2022-12-22T00:17:48.258Z,96509.84
2022-12-22T00:23:30.394Z,96504.66
2022-12-22T00:29:09.353Z,96493.84
2022-12-22T00:34:51.687Z,96483.66
2022-12-22T00:40:40.145Z,96477.75
2022-12-22T00:46:22.619Z,96480.94
2022-12-22T00:52:01.680Z,96475.47
2022-12-22T00:57:44.789Z,96465.66
2022-12-22T01:03:23.965Z,96465.88
2022-12-22T01:09:03.997Z,96468.25
2022-12-22T01:14:43.163Z,96464.34
2022-12-22T01:20:22.837Z,96454.25
2022-12-22T01:26:02.663Z,96455.97
2022-12-22T01:31:50.840Z,96450.09
2022-12-22T01:37:30.244Z,96448.03
2022-12-22T01:43:09.502Z,96440.41
2022-12-22T01:48:50.717Z,96426.50
2022-12-22T01:54:32.108Z,96416.97
2022-12-22T02:00:11.449Z,96420.47
2022-12-22T02:05:57.770Z,96411.22
2022-12-22T02:11:37.180Z,96405.66
2022-12-22T02:18:06.420Z,96392.22
2022-12-22T02:24:25.544Z,96387.50
2022-12-22T02:30:15.425Z,96378.19
2022-12-22T02:36:32.305Z,96367.84
2022-12-22T02:42:30.965Z,96360.97
2022-12-22T02:48:23.560Z,96376.00
2022-12-22T02:54:03.273Z,96369.63
2022-12-22T02:59:42.352Z,96356.75
2022-12-22T03:05:21.659Z,96352.53
2022-12-22T03:11:00.728Z,96354.41
2022-12-22T03:16:40.167Z,96356.97
2022-12-22T03:22:19.210Z,96372.41
2022-12-22T03:27:39.895Z,96372.78
2022-12-22T03:33:00.760Z,96388.53
2022-12-22T03:38:21.725Z,96379.34
2022-12-22T03:44:00.978Z,96378.13
2022-12-22T03:49:22.981Z,96365.31
2022-12-22T03:54:45.036Z,96352.56
2022-12-22T04:00:06.462Z,96362.47
2022-12-22T04:05:32.744Z,96354.97
2022-12-22T04:11:11.892Z,96337.03
2022-12-22T04:16:33.238Z,96332.44
2022-12-22T04:21:54.535Z,96324.94
2022-12-22T04:27:15.502Z,96315.66
2022-12-22T04:32:36.087Z,96307.44
2022-12-22T04:37:56.899Z,96309.16
2022-12-22T04:43:17.461Z,96302.91
2022-12-22T04:48:38.217Z,96300.94
2022-12-22T04:53:58.815Z,96300.75
2022-12-22T04:59:19.596Z,96304.25
2022-12-22T05:04:40.198Z,96317.66
2022-12-22T05:10:00.865Z,96307.00
2022-12-22T05:15:26.654Z,96297.53
2022-12-22T05:20:47.342Z,96293.44
2022-12-22T05:26:08.781Z,96285.03
2022-12-22T05:31:29.599Z,96270.19
2022-12-22T05:36:59.723Z,96270.00
2022-12-22T05:42:35.930Z,96271.03
2022-12-22T05:47:57.265Z,96270.63
2022-12-22T05:53:17.999Z,96259.13
2022-12-22T05:58:39.503Z,96253.13
2022-12-22T06:04:00.889Z,96241.91
2022-12-22T06:09:21.959Z,96246.03
2022-12-22T06:14:42.650Z,96223.63
2022-12-22T06:20:04.253Z,96214.50
2022-12-22T06:25:25.200Z,96222.69
2022-12-22T06:30:46.020Z,96227.53
2022-12-22T06:36:08.378Z,96222.16
2022-12-22T06:41:48.013Z,96232.69
2022-12-22T06:47:08.648Z,96240.47
2022-12-22T06:52:29.248Z,96241.06
2022-12-22T06:57:49.905Z,96239.88
2022-12-22T07:03:10.902Z,96228.41
2022-12-22T07:08:31.936Z,96235.31
2022-12-22T07:13:52.833Z,96228.84
2022-12-22T07:19:13.926Z,96226.75
2022-12-22T07:24:34.996Z,96215.72
2022-12-22T07:29:55.585Z,96218.41
2022-12-22T07:35:16.311Z,96206.00
2022-12-22T07:40:41.339Z,96202.09
2022-12-22T07:46:02.519Z,96190.13
2022-12-22T07:51:23.342Z,96186.16
2022-12-22T07:56:45.829Z,96188.19
2022-12-22T08:02:10.141Z,96172.63
2022-12-22T08:07:32.708Z,96172.16
2022-12-22T08:12:53.253Z,96166.41
2022-12-22T08:18:13.916Z,96166.97
2022-12-22T08:23:35.111Z,96159.34
2022-12-22T08:29:03.484Z,96159.00
2022-12-22T08:34:24.594Z,96154.09
2022-12-22T08:39:50.796Z,96145.06
2022-12-22T08:45:11.637Z,96122.31
2022-12-22T08:50:32.384Z,96123.53
2022-12-22T08:55:54.588Z,96120.34
2022-12-22T09:01:20.294Z,96123.16
2022-12-22T09:06:41.549Z,96129.75
2022-12-22T09:12:03.016Z,96136.56
2022-12-22T09:17:23.662Z,96123.50
2022-12-22T09:22:44.290Z,96129.97
2022-12-22T09:28:07.460Z,96132.53
2022-12-22T09:33:28.228Z,96113.16
2022-12-22T09:38:49.297Z,96110.84
2022-12-22T09:44:33.854Z,96110.00
2022-12-22T09:49:57.436Z,96102.63
2022-12-22T09:55:24.315Z,96091.00
2022-12-22T10:00:50.640Z,96087.47
2022-12-22T10:06:19.689Z,96085.38
2022-12-22T10:11:50.772Z,96084.31
2022-12-22T10:17:32.294Z,96080.56
2022-12-22T10:23:12.518Z,96084.66
2022-12-22T10:28:59.556Z,96074.19
2022-12-22T10:34:20.955Z,96067.13
2022-12-22T10:39:41.746Z,96074.78
2022-12-22T10:45:02.534Z,96077.38
2022-12-22T10:50:23.894Z,96070.44
2022-12-22T10:55:44.681Z,96058.22
2022-12-22T11:01:05.822Z,96039.75
2022-12-22T11:06:27.218Z,96031.91
2022-12-22T11:11:59.927Z,96027.19
2022-12-22T11:17:49.175Z,96012.25
2022-12-22T11:23:36.759Z,96012.47
2022-12-22T11:29:26.049Z,96008.56
2022-12-22T11:35:05.551Z,95996.28
2022-12-22T11:40:49.137Z,95985.50
2022-12-22T11:46:19.121Z,95973.50
2022-12-22T11:52:00.241Z,95966.69
2022-12-22T11:57:42.330Z,95968.44
2022-12-22T12:03:35.770Z,95961.91
2022-12-22T12:09:11.985Z,95949.94
2022-12-22T12:14:58.658Z,95953.88
2022-12-22T12:20:36.068Z,95948.47
2022-12-22T12:26:20.060Z,95951.47
2022-12-22T12:32:02.891Z,95957.91
2022-12-22T12:37:33.415Z,95949.41
2022-12-22T12:42:55.246Z,95946.19
2022-12-22T12:48:40.083Z,95943.88
2022-12-22T12:54:29.027Z,95939.91
2022-12-22T12:59:52.658Z,95929.28
2022-12-22T13:05:27.833Z,95926.84
2022-12-22T13:10:54.943Z,95918.81
2022-12-22T13:16:15.640Z,95925.25
2022-12-22T13:21:52.874Z,95914.75
2022-12-22T13:27:15.128Z,95910.41
2022-12-22T13:32:36.230Z,95904.28
2022-12-22T13:37:57.622Z,95903.88
2022-12-22T13:43:20.807Z,95907.03
2022-12-22T13:48:48.868Z,95915.63
2022-12-22T13:54:23.333Z,95924.22
2022-12-22T13:59:47.522Z,95919.84
2022-12-22T14:05:12.271Z,95930.50
2022-12-22T14:10:44.831Z,95931.72
2022-12-22T14:16:06.246Z,95922.56
2022-12-22T14:21:27.341Z,95896.16
2022-12-22T14:26:48.930Z,95893.56
2022-12-22T14:32:12.667Z,95901.19
2022-12-22T14:37:33.505Z,95902.28
2022-12-22T14:42:54.648Z,95899.81
2022-12-22T14:48:26.004Z,95900.91
2022-12-22T14:53:52.242Z,95910.56
2022-12-22T14:59:27.076Z,95907.28
2022-12-22T15:04:47.870Z,95904.00
2022-12-22T15:10:17.219Z,95906.75
2022-12-22T15:15:38.506Z,95906.19
2022-12-22T15:20:59.154Z,95919.94
2022-12-22T15:26:20.124Z,95923.38
2022-12-22T15:31:42.774Z,95927.44
2022-12-22T15:37:03.575Z,95922.28
2022-12-22T15:42:24.230Z,95927.19
2022-12-22T15:47:48.856Z,95926.50
2022-12-22T15:53:17.394Z,95933.47
2022-12-22T15:58:38.189Z,95928.19
2022-12-22T16:03:58.937Z,95917.31
2022-12-22T16:09:38.209Z,95905.16
2022-12-22T16:15:01.102Z,95924.66
2022-12-22T16:20:22.114Z,95931.16
2022-12-22T16:25:45.202Z,95923.69
2022-12-22T16:31:16.329Z,95927.72
2022-12-22T16:36:37.381Z,95937.00
2022-12-22T16:42:00.514Z,95937.94
2022-12-22T16:47:26.693Z,95949.88
2022-12-22T16:52:48.282Z,95955.59
2022-12-22T16:58:13.823Z,95959.78
2022-12-22T17:03:37.746Z,95964.94
2022-12-22T17:08:58.603Z,95969.69
2022-12-22T17:14:33.058Z,95975.16
2022-12-22T17:19:54.220Z,95983.88
2022-12-22T17:25:26.107Z,95992.72
2022-12-22T17:30:47.354Z,96003.75
2022-12-22T17:36:18.612Z,96006.59
2022-12-22T17:41:39.985Z,96009.59
2022-12-22T17:47:01.036Z,96009.47
2022-12-22T17:52:24.247Z,96018.03
2022-12-22T17:57:44.824Z,96021.19
2022-12-22T18:03:05.933Z,96035.22
2022-12-22T18:08:26.889Z,96041.50
2022-12-22T18:13:48.121Z,96043.97
2022-12-22T18:19:09.077Z,96047.38
2022-12-22T18:24:29.749Z,96058.56
2022-12-22T18:29:50.819Z,96058.16
2022-12-22T18:35:11.834Z,96063.19
2022-12-22T18:40:39.049Z,96070.00
2022-12-22T18:45:59.798Z,96073.69
2022-12-22T18:51:24.571Z,96074.50
2022-12-22T18:56:45.367Z,96085.56
2022-12-22T19:02:27.783Z,96100.66
2022-12-22T19:07:49.561Z,96103.13
2022-12-22T19:13:21.804Z,96098.38
2022-12-22T19:18:43.499Z,96097.28
2022-12-22T19:24:04.730Z,96103.41
2022-12-22T19:29:25.618Z,96114.72
2022-12-22T19:34:46.738Z,96118.97
2022-12-22T19:40:08.499Z,96120.34
2022-12-22T19:45:35.483Z,96112.19
2022-12-22T19:50:56.834Z,96120.25
2022-12-22T19:56:36.384Z,96121.63
2022-12-22T20:01:59.620Z,96140.03
2022-12-22T20:07:24.191Z,96132.66
2022-12-22T20:12:47.952Z,96129.53
2022-12-22T20:18:20.343Z,96140.72
2022-12-22T20:23:41.631Z,96148.22
2022-12-22T20:29:03.481Z,96144.03
2022-12-22T20:34:24.139Z,96157.13
2022-12-22T20:39:45.693Z,96156.25
2022-12-22T20:45:06.416Z,96145.66
2022-12-22T20:50:30.727Z,96142.34
2022-12-22T20:55:51.732Z,96142.91
2022-12-22T21:01:14.436Z,96152.31
2022-12-22T21:06:38.573Z,96150.72
2022-12-22T21:11:59.258Z,96151.84
2022-12-22T21:17:19.966Z,96147.63
2022-12-22T21:22:40.733Z,96136.03
2022-12-22T21:28:02.613Z,96134.09
2022-12-22T21:33:23.573Z,96124.41
2022-12-22T21:38:44.458Z,96118.69
2022-12-22T21:44:05.170Z,96119.91
2022-12-22T21:49:28.979Z,96109.28
2022-12-22T21:54:49.806Z,96101.91
2022-12-22T22:00:16.489Z,96085.28
2022-12-22T22:05:39.242Z,96094.03
2022-12-22T22:11:00.386Z,96087.84
2022-12-22T22:16:21.045Z,96078.19
2022-12-22T22:21:41.759Z,96077.63
2022-12-22T22:27:02.419Z,96079.09
2022-12-22T22:32:23.245Z,96065.59
2022-12-22T22:37:45.789Z,96058.97
2022-12-22T22:43:06.460Z,96057.06
2022-12-22T22:48:27.429Z,96053.25
2022-12-22T22:53:48.086Z,96050.94
2022-12-22T22:59:11.837Z,96040.72
2022-12-22T23:04:32.519Z,96031.28
2022-12-22T23:09:53.213Z,96027.31
2022-12-22T23:15:13.813Z,96031.53
2022-12-22T23:20:35.807Z,96034.38
2022-12-22T23:25:57.023Z,96023.06
2022-12-22T23:31:18.201Z,96018.81
2022-12-22T23:36:39.257Z,96011.03
2022-12-22T23:42:00.083Z,96002.09
2022-12-22T23:47:21.093Z,95996.88
2022-12-22T23:52:47.277Z,96000.78
2022-12-22T23:58:10.646Z,95997.81
